sensor_id;sensor_type;location;lat;lon;timestamp;pressure;altitude;pressure_sealevel;temperature;humidity
10127;BME280;13080;42.608;23.362;2022-11-28T00:02:13;151176.94;;;0.28;100.00
10127;BME280;13080;42.608;23.362;2022-11-28T00:04:41;151171.78;;;0.26;100.00
10127;BME280;13080;42.608;23.362;2022-11-28T00:07:09;151165.34;;;0.23;100.00
10127;BME280;13080;42.608;23.362;2022-11-28T00:09:36;151169.19;;;0.25;100.00
10127;BME280;13080;42.608;23.362;2022-11-28T00:12:03;151167.91;;;0.24;100.00
10127;BME280;13080;42.608;23.362;2022-11-28T00:14:30;151153.75;;;0.18;100.00
10127;BME280;13080;42.608;23.362;2022-11-28T00:16:56;151151.16;;;0.17;100.00
10127;BME280;13080;42.608;23.362;2022-11-28T00:19:23;151143.44;;;0.14;100.00
10127;BME280;13080;42.608;23.362;2022-11-28T00:21:51;151133.13;;;0.10;100.00
10127;BME280;13080;42.608;23.362;2022-11-28T00:24:18;151138.28;;;0.12;100.00
10127;BME280;13080;42.608;23.362;2022-11-28T00:26:44;151124.09;;;0.07;100.00
10127;BME280;13080;42.608;23.362;2022-11-28T00:29:11;151117.66;;;0.04;100.00
10127;BME280;13080;42.608;23.362;2022-11-28T00:31:40;151120.28;;;0.05;100.00
10127;BME280;13080;42.608;23.362;2022-11-28T00:34:08;151130.59;;;0.09;100.00
10127;BME280;13080;42.608;23.362;2022-11-28T00:36:34;151138.28;;;0.12;100.00
10127;BME280;13080;42.608;23.362;2022-11-28T00:39:03;151124.09;;;0.07;100.00
10127;BME280;13080;42.608;23.362;2022-11-28T00:41:30;151112.50;;;0.02;100.00
10127;BME280;13080;42.608;23.362;2022-11-28T00:43:59;151109.97;;;0.01;100.00
10127;BME280;13080;42.608;23.362;2022-11-28T00:46:26;151102.25;;;-0.02;100.00
10127;BME280;13080;42.608;23.362;2022-11-28T00:48:53;151102.25;;;-0.02;100.00
10127;BME280;13080;42.608;23.362;2022-11-28T00:51:21;151088.06;;;-0.08;100.00
10127;BME280;13080;42.608;23.362;2022-11-28T00:53:50;151075.19;;;-0.13;100.00
10127;BME280;13080;42.608;23.362;2022-11-28T00:56:20;151085.50;;;-0.09;100.00
10127;BME280;13080;42.608;23.362;2022-11-28T00:58:47;151077.75;;;-0.12;100.00
10127;BME280;13080;42.608;23.362;2022-11-28T01:01:16;151077.75;;;-0.12;100.00
10127;BME280;13080;42.608;23.362;2022-11-28T01:03:44;151113.84;;;0.03;100.00
10127;BME280;13080;42.608;23.362;2022-11-28T01:06:12;151135.72;;;0.11;100.00
10127;BME280;13080;42.608;23.362;2022-11-28T01:08:39;151130.59;;;0.09;100.00
10127;BME280;13080;42.608;23.362;2022-11-28T01:11:10;151142.16;;;0.14;100.00
10127;BME280;13080;42.608;23.362;2022-11-28T01:13:39;151139.56;;;0.13;100.00
10127;BME280;13080;42.608;23.362;2022-11-28T01:16:07;151131.84;;;0.10;100.00
10127;BME280;13080;42.608;23.362;2022-11-28T01:18:34;151137.00;;;0.12;100.00
10127;BME280;13080;42.608;23.362;2022-11-28T01:21:00;151138.28;;;0.12;100.00
10127;BME280;13080;42.608;23.362;2022-11-28T01:23:27;151149.88;;;0.17;100.00
10127;BME280;13080;42.608;23.362;2022-11-28T01:25:54;151156.31;;;0.19;100.00
10127;BME280;13080;42.608;23.362;2022-11-28T01:28:21;151149.88;;;0.17;100.00
10127;BME280;13080;42.608;23.362;2022-11-28T01:30:49;151156.31;;;0.19;100.00
10127;BME280;13080;42.608;23.362;2022-11-28T01:33:16;151179.50;;;0.29;100.00
10127;BME280;13080;42.608;23.362;2022-11-28T01:35:53;151160.19;;;0.21;100.00
10127;BME280;13080;42.608;23.362;2022-11-28T01:38:19;151176.94;;;0.28;100.00
10127;BME280;13080;42.608;23.362;2022-11-28T01:40:46;151167.91;;;0.24;100.00
10127;BME280;13080;42.608;23.362;2022-11-28T01:43:13;151155.03;;;0.19;100.00
10127;BME280;13080;42.608;23.362;2022-11-28T01:45:40;151139.56;;;0.13;100.00
10127;BME280;13080;42.608;23.362;2022-11-28T01:48:11;151144.72;;;0.15;100.00
10127;BME280;13080;42.608;23.362;2022-11-28T01:50:41;151144.72;;;0.15;100.00
10127;BME280;13080;42.608;23.362;2022-11-28T01:53:11;151126.69;;;0.08;100.00
10127;BME280;13080;42.608;23.362;2022-11-28T01:55:42;151129.25;;;0.09;100.00
10127;BME280;13080;42.608;23.362;2022-11-28T01:58:12;151144.72;;;0.15;100.00
10127;BME280;13080;42.608;23.362;2022-11-28T02:00:40;151139.56;;;0.13;100.00
10127;BME280;13080;42.608;23.362;2022-11-28T02:03:11;151130.59;;;0.09;100.00
10127;BME280;13080;42.608;23.362;2022-11-28T02:05:39;151137.00;;;0.12;100.00
10127;BME280;13080;42.608;23.362;2022-11-28T02:08:07;151127.97;;;0.08;100.00
10127;BME280;13080;42.608;23.362;2022-11-28T02:10:42;151121.53;;;0.06;100.00
10127;BME280;13080;42.608;23.362;2022-11-28T02:13:23;151142.16;;;0.14;100.00
10127;BME280;13080;42.608;23.362;2022-11-28T02:18:56;151133.13;;;0.10;100.00
10127;BME280;13080;42.608;23.362;2022-11-28T02:21:45;151142.16;;;0.14;100.00
10127;BME280;13080;42.608;23.362;2022-11-28T02:24:30;151151.16;;;0.17;100.00
10127;BME280;13080;42.608;23.362;2022-11-28T02:27:14;151144.72;;;0.15;100.00
10127;BME280;13080;42.608;23.362;2022-11-28T02:29:54;151137.00;;;0.12;100.00
10127;BME280;13080;42.608;23.362;2022-11-28T02:32:53;151119.00;;;0.05;100.00
10127;BME280;13080;42.608;23.362;2022-11-28T02:35:26;151112.50;;;0.02;100.00
10127;BME280;13080;42.608;23.362;2022-11-28T02:38:01;151109.97;;;0.01;100.00
10127;BME280;13080;42.608;23.362;2022-11-28T02:40:36;151097.09;;;-0.04;100.00
10127;BME280;13080;42.608;23.362;2022-11-28T02:43:10;151104.81;;;-0.01;100.00
10127;BME280;13080;42.608;23.362;2022-11-28T02:45:47;151117.66;;;0.04;100.00
10127;BME280;13080;42.608;23.362;2022-11-28T02:48:24;151107.41;;;0.00;100.00
10127;BME280;13080;42.608;23.362;2022-11-28T02:50:57;151095.78;;;-0.05;100.00
10127;BME280;13080;42.608;23.362;2022-11-28T02:53:28;151086.78;;;-0.08;100.00
10127;BME280;13080;42.608;23.362;2022-11-28T02:55:56;151089.34;;;-0.07;100.00
10127;BME280;13080;42.608;23.362;2022-11-28T02:58:24;151097.09;;;-0.04;100.00
10127;BME280;13080;42.608;23.362;2022-11-28T03:00:51;151116.38;;;0.04;100.00
10127;BME280;13080;42.608;23.362;2022-11-28T03:03:47;151122.81;;;0.06;100.00
10127;BME280;13080;42.608;23.362;2022-11-28T03:06:24;151121.53;;;0.06;100.00
10127;BME280;13080;42.608;23.362;2022-11-28T03:09:04;151094.50;;;-0.05;100.00
10127;BME280;13080;42.608;23.362;2022-11-28T03:11:45;151079.03;;;-0.11;100.00
10127;BME280;13080;42.608;23.362;2022-11-28T03:14:23;151080.34;;;-0.11;100.00
10127;BME280;13080;42.608;23.362;2022-11-28T03:16:55;151093.22;;;-0.06;100.00
10127;BME280;13080;42.608;23.362;2022-11-28T03:19:29;151095.78;;;-0.05;100.00
10127;BME280;13080;42.608;23.362;2022-11-28T03:22:03;151113.84;;;0.03;100.00
10127;BME280;13080;42.608;23.362;2022-11-28T03:24:36;151112.50;;;0.02;100.00
10127;BME280;13080;42.608;23.362;2022-11-28T03:27:08;151113.84;;;0.03;100.00
10127;BME280;13080;42.608;23.362;2022-11-28T03:29:40;151100.94;;;-0.03;100.00
10127;BME280;13080;42.608;23.362;2022-11-28T03:32:12;151082.91;;;-0.10;100.00
10127;BME280;13080;42.608;23.362;2022-11-28T03:34:46;151098.38;;;-0.04;100.00
10127;BME280;13080;42.608;23.362;2022-11-28T03:37:19;151086.78;;;-0.08;100.00
10127;BME280;13080;42.608;23.362;2022-11-28T03:39:52;151091.94;;;-0.06;100.00
10127;BME280;13080;42.608;23.362;2022-11-28T03:42:22;151089.34;;;-0.07;100.00
10127;BME280;13080;42.608;23.362;2022-11-28T03:44:53;151089.34;;;-0.07;100.00
10127;BME280;13080;42.608;23.362;2022-11-28T03:47:23;151094.50;;;-0.05;100.00
10127;BME280;13080;42.608;23.362;2022-11-28T03:49:56;151111.25;;;0.02;100.00
10127;BME280;13080;42.608;23.362;2022-11-28T03:52:28;151102.25;;;-0.02;100.00
10127;BME280;13080;42.608;23.362;2022-11-28T03:55:00;151100.94;;;-0.03;100.00
10127;BME280;13080;42.608;23.362;2022-11-28T03:57:32;151099.66;;;-0.03;100.00
10127;BME280;13080;42.608;23.362;2022-11-28T04:00:03;151097.09;;;-0.04;100.00
10127;BME280;13080;42.608;23.362;2022-11-28T04:02:35;151098.38;;;-0.04;100.00
10127;BME280;13080;42.608;23.362;2022-11-28T04:05:14;151095.78;;;-0.05;100.00
10127;BME280;13080;42.608;23.362;2022-11-28T04:07:45;151089.34;;;-0.07;100.00
10127;BME280;13080;42.608;23.362;2022-11-28T04:10:16;151099.66;;;-0.03;100.00
10127;BME280;13080;42.608;23.362;2022-11-28T04:12:53;151094.50;;;-0.05;100.00
10127;BME280;13080;42.608;23.362;2022-11-28T04:15:28;151119.00;;;0.05;100.00
10127;BME280;13080;42.608;23.362;2022-11-28T04:17:59;151122.81;;;0.06;100.00
10127;BME280;13080;42.608;23.362;2022-11-28T04:20:34;151127.97;;;0.08;100.00
10127;BME280;13080;42.608;23.362;2022-11-28T04:23:05;151113.84;;;0.03;100.00
10127;BME280;13080;42.608;23.362;2022-11-28T04:25:35;151116.38;;;0.04;100.00
10127;BME280;13080;42.608;23.362;2022-11-28T04:28:07;151121.53;;;0.06;100.00
10127;BME280;13080;42.608;23.362;2022-11-28T04:30:35;151108.69;;;0.01;100.00
10127;BME280;13080;42.608;23.362;2022-11-28T04:33:06;151106.06;;;-0.01;100.00
10127;BME280;13080;42.608;23.362;2022-11-28T04:35:37;151095.78;;;-0.05;100.00
10127;BME280;13080;42.608;23.362;2022-11-28T04:38:06;151081.63;;;-0.10;100.00
10127;BME280;13080;42.608;23.362;2022-11-28T04:40:37;151095.78;;;-0.05;100.00
10127;BME280;13080;42.608;23.362;2022-11-28T04:43:09;151088.06;;;-0.08;100.00
10127;BME280;13080;42.608;23.362;2022-11-28T04:45:44;151095.78;;;-0.05;100.00
10127;BME280;13080;42.608;23.362;2022-11-28T04:48:12;151104.81;;;-0.01;100.00
10127;BME280;13080;42.608;23.362;2022-11-28T04:50:44;151095.78;;;-0.05;100.00
10127;BME280;13080;42.608;23.362;2022-11-28T04:53:15;151081.63;;;-0.10;100.00
10127;BME280;13080;42.608;23.362;2022-11-28T04:55:46;151067.44;;;-0.16;100.00
10127;BME280;13080;42.608;23.362;2022-11-28T04:58:18;151084.19;;;-0.09;100.00
10127;BME280;13080;42.608;23.362;2022-11-28T05:00:47;151081.63;;;-0.10;100.00
10127;BME280;13080;42.608;23.362;2022-11-28T05:03:15;151068.78;;;-0.15;100.00
10127;BME280;13080;42.608;23.362;2022-11-28T05:05:46;151079.03;;;-0.11;100.00
10127;BME280;13080;42.608;23.362;2022-11-28T05:08:14;151082.91;;;-0.10;100.00
10127;BME280;13080;42.608;23.362;2022-11-28T05:10:41;151075.19;;;-0.13;100.00
10127;BME280;13080;42.608;23.362;2022-11-28T05:13:08;151075.19;;;-0.13;100.00
10127;BME280;13080;42.608;23.362;2022-11-28T05:15:35;151076.47;;;-0.12;100.00
10127;BME280;13080;42.608;23.362;2022-11-28T05:18:02;151079.03;;;-0.11;100.00
10127;BME280;13080;42.608;23.362;2022-11-28T05:20:29;151088.06;;;-0.08;100.00
10127;BME280;13080;42.608;23.362;2022-11-28T05:22:57;151081.63;;;-0.10;100.00
10127;BME280;13080;42.608;23.362;2022-11-28T05:25:24;151112.50;;;0.02;100.00
10127;BME280;13080;42.608;23.362;2022-11-28T05:27:51;151112.50;;;0.02;100.00
10127;BME280;13080;42.608;23.362;2022-11-28T05:30:17;151120.28;;;0.05;100.00
10127;BME280;13080;42.608;23.362;2022-11-28T05:32:44;151104.81;;;-0.01;100.00
10127;BME280;13080;42.608;23.362;2022-11-28T05:35:11;151106.06;;;-0.01;100.00
10127;BME280;13080;42.608;23.362;2022-11-28T05:37:38;151122.81;;;0.06;100.00
10127;BME280;13080;42.608;23.362;2022-11-28T05:40:07;151100.94;;;-0.03;100.00
10127;BME280;13080;42.608;23.362;2022-11-28T05:42:35;151104.81;;;-0.01;100.00
10127;BME280;13080;42.608;23.362;2022-11-28T05:45:02;151079.03;;;-0.11;100.00
10127;BME280;13080;42.608;23.362;2022-11-28T05:47:29;151084.19;;;-0.09;100.00
10127;BME280;13080;42.608;23.362;2022-11-28T05:49:56;151093.22;;;-0.06;100.00
10127;BME280;13080;42.608;23.362;2022-11-28T05:52:23;151097.09;;;-0.04;100.00
10127;BME280;13080;42.608;23.362;2022-11-28T05:54:50;151095.78;;;-0.05;100.00
10127;BME280;13080;42.608;23.362;2022-11-28T05:57:18;151120.28;;;0.05;100.00
10127;BME280;13080;42.608;23.362;2022-11-28T05:59:44;151115.13;;;0.03;100.00
10127;BME280;13080;42.608;23.362;2022-11-28T06:02:11;151115.13;;;0.03;100.00
10127;BME280;13080;42.608;23.362;2022-11-28T06:04:38;151113.84;;;0.03;100.00
10127;BME280;13080;42.608;23.362;2022-11-28T06:07:06;151117.66;;;0.04;100.00
10127;BME280;13080;42.608;23.362;2022-11-28T06:09:33;151129.25;;;0.09;100.00
10127;BME280;13080;42.608;23.362;2022-11-28T06:12:00;151137.00;;;0.12;100.00
10127;BME280;13080;42.608;23.362;2022-11-28T06:14:28;151143.44;;;0.14;100.00
10127;BME280;13080;42.608;23.362;2022-11-28T06:16:55;151170.50;;;0.25;100.00
10127;BME280;13080;42.608;23.362;2022-11-28T06:19:22;151175.66;;;0.27;100.00
10127;BME280;13080;42.608;23.362;2022-11-28T06:21:49;151192.41;;;0.34;100.00
10127;BME280;13080;42.608;23.362;2022-11-28T06:24:15;151214.25;;;0.43;100.00
10127;BME280;13080;42.608;23.362;2022-11-28T06:26:42;151224.56;;;0.47;100.00
10127;BME280;13080;42.608;23.362;2022-11-28T06:29:09;151234.88;;;0.51;100.00
10127;BME280;13080;42.608;23.362;2022-11-28T06:31:37;151234.88;;;0.51;100.00
10127;BME280;13080;42.608;23.362;2022-11-28T06:34:04;151225.91;;;0.47;100.00
10127;BME280;13080;42.608;23.362;2022-11-28T06:36:31;151234.88;;;0.51;100.00
10127;BME280;13080;42.608;23.362;2022-11-28T06:38:58;151220.75;;;0.45;100.00
10127;BME280;13080;42.608;23.362;2022-11-28T06:41:25;151229.72;;;0.49;100.00
10127;BME280;13080;42.608;23.362;2022-11-28T06:43:51;151252.91;;;0.58;100.00
10127;BME280;13080;42.608;23.362;2022-11-28T06:46:19;151261.97;;;0.61;100.00
10127;BME280;13080;42.608;23.362;2022-11-28T06:48:49;151268.41;;;0.64;100.00
10127;BME280;13080;42.608;23.362;2022-11-28T06:51:17;151274.81;;;0.67;100.00
10127;BME280;13080;42.608;23.362;2022-11-28T06:53:44;151267.13;;;0.64;100.00
10127;BME280;13080;42.608;23.362;2022-11-28T06:56:13;151258.06;;;0.60;100.00
10127;BME280;13080;42.608;23.362;2022-11-28T06:58:40;151252.91;;;0.58;100.00
10127;BME280;13080;42.608;23.362;2022-11-28T07:01:08;151245.19;;;0.55;100.00
10127;BME280;13080;42.608;23.362;2022-11-28T07:03:36;151236.16;;;0.51;100.00
10127;BME280;13080;42.608;23.362;2022-11-28T07:06:05;151245.19;;;0.55;100.00
10127;BME280;13080;42.608;23.362;2022-11-28T07:08:33;151259.34;;;0.60;100.00
10127;BME280;13080;42.608;23.362;2022-11-28T07:11:06;151283.88;;;0.70;100.00
10127;BME280;13080;42.608;23.362;2022-11-28T07:13:33;151291.59;;;0.73;100.00
10127;BME280;13080;42.608;23.362;2022-11-28T07:16:00;151313.50;;;0.82;100.00
10127;BME280;13080;42.608;23.362;2022-11-28T07:21:13;151331.53;;;0.89;100.00
10127;BME280;13080;42.608;23.362;2022-11-28T07:23:41;151326.38;;;0.87;100.00
10127;BME280;13080;42.608;23.362;2022-11-28T07:26:09;151334.13;;;0.90;100.00
10127;BME280;13080;42.608;23.362;2022-11-28T07:28:37;151344.44;;;0.94;100.00
10127;BME280;13080;42.608;23.362;2022-11-28T07:31:06;151356.03;;;0.99;100.00
10127;BME280;13080;42.608;23.362;2022-11-28T07:33:34;151359.88;;;1.00;100.00
10127;BME280;13080;42.608;23.362;2022-11-28T07:36:01;151393.38;;;1.14;100.00
10127;BME280;13080;42.608;23.362;2022-11-28T07:38:30;151390.84;;;1.13;100.00
10127;BME280;13080;42.608;23.362;2022-11-28T07:41:01;151389.56;;;1.12;100.00
10127;BME280;13080;42.608;23.362;2022-11-28T07:43:28;151381.78;;;1.09;100.00
10127;BME280;13080;42.608;23.362;2022-11-28T07:45:55;151372.81;;;1.06;100.00
10127;BME280;13080;42.608;23.362;2022-11-28T07:48:22;151372.81;;;1.06;100.00
10127;BME280;13080;42.608;23.362;2022-11-28T07:50:48;151372.81;;;1.06;100.00
10127;BME280;13080;42.608;23.362;2022-11-28T07:53:15;151398.56;;;1.16;100.00
10127;BME280;13080;42.608;23.362;2022-11-28T07:55:43;151408.88;;;1.20;100.00
10127;BME280;13080;42.608;23.362;2022-11-28T07:58:10;151403.72;;;1.18;100.00
10127;BME280;13080;42.608;23.362;2022-11-28T08:00:37;151381.78;;;1.09;100.00
10127;BME280;13080;42.608;23.362;2022-11-28T08:03:04;151372.81;;;1.06;100.00
10127;BME280;13080;42.608;23.362;2022-11-28T08:05:30;151368.91;;;1.04;100.00
10127;BME280;13080;42.608;23.362;2022-11-28T08:07:57;151388.22;;;1.12;100.00
10127;BME280;13080;42.608;23.362;2022-11-28T08:10:24;151405.00;;;1.18;100.00
10127;BME280;13080;42.608;23.362;2022-11-28T08:12:52;151411.44;;;1.21;100.00
10127;BME280;13080;42.608;23.362;2022-11-28T08:15:19;151397.28;;;1.15;100.00
10127;BME280;13080;42.608;23.362;2022-11-28T08:17:45;151434.69;;;1.30;100.00
10127;BME280;13080;42.608;23.362;2022-11-28T08:20:12;151456.53;;;1.39;100.00
10127;BME280;13080;42.608;23.362;2022-11-28T08:22:39;151457.88;;;1.39;100.00
10127;BME280;13080;42.608;23.362;2022-11-28T08:25:07;151457.88;;;1.39;100.00
10127;BME280;13080;42.608;23.362;2022-11-28T08:27:34;151492.69;;;1.53;100.00
10127;BME280;13080;42.608;23.362;2022-11-28T08:30:02;151470.75;;;1.44;100.00
10127;BME280;13080;42.608;23.362;2022-11-28T08:32:29;151450.13;;;1.36;100.00
10127;BME280;13080;42.608;23.362;2022-11-28T08:34:56;151459.16;;;1.40;100.00
10127;BME280;13080;42.608;23.362;2022-11-28T08:37:23;151470.75;;;1.44;100.00
10127;BME280;13080;42.608;23.362;2022-11-28T08:39:50;151491.41;;;1.53;100.00
10127;BME280;13080;42.608;23.362;2022-11-28T08:42:17;151492.69;;;1.53;100.00
10127;BME280;13080;42.608;23.362;2022-11-28T08:44:44;151497.84;;;1.55;100.00
10127;BME280;13080;42.608;23.362;2022-11-28T08:47:12;151531.38;;;1.69;100.00
10127;BME280;13080;42.608;23.362;2022-11-28T08:49:39;151526.22;;;1.66;100.00
10127;BME280;13080;42.608;23.362;2022-11-28T08:52:05;151521.03;;;1.64;100.00
10127;BME280;13080;42.608;23.362;2022-11-28T08:54:32;151509.44;;;1.60;100.00
10127;BME280;13080;42.608;23.362;2022-11-28T08:56:59;151545.53;;;1.74;100.00
10127;BME280;13080;42.608;23.362;2022-11-28T08:59:26;151568.75;;;1.83;100.00
10127;BME280;13080;42.608;23.362;2022-11-28T09:01:53;151610.06;;;2.00;100.00
10127;BME280;13080;42.608;23.362;2022-11-28T09:04:22;151624.22;;;2.05;100.00
10127;BME280;13080;42.608;23.362;2022-11-28T09:06:49;151643.59;;;2.13;100.00
10127;BME280;13080;42.608;23.362;2022-11-28T09:09:16;151630.66;;;2.08;100.00
10127;BME280;13080;42.608;23.362;2022-11-28T09:11:42;151637.09;;;2.11;100.00
10127;BME280;13080;42.608;23.362;2022-11-28T09:14:09;151662.94;;;2.21;100.00
10127;BME280;13080;42.608;23.362;2022-11-28T09:16:36;151675.81;;;2.26;99.73
10127;BME280;13080;42.608;23.362;2022-11-28T09:19:03;151669.38;;;2.23;99.64
10127;BME280;13080;42.608;23.362;2022-11-28T09:21:34;151690.03;;;2.32;98.69
10127;BME280;13080;42.608;23.362;2022-11-28T09:24:01;151726.13;;;2.46;98.11
10127;BME280;13080;42.608;23.362;2022-11-28T09:26:28;151736.47;;;2.50;98.04
10127;BME280;13080;42.608;23.362;2022-11-28T09:28:55;151713.25;;;2.41;96.69
10127;BME280;13080;42.608;23.362;2022-11-28T09:31:22;151688.75;;;2.31;97.43
10127;BME280;13080;42.608;23.362;2022-11-28T09:33:49;151661.66;;;2.20;97.46
10127;BME280;13080;42.608;23.362;2022-11-28T09:36:17;151629.38;;;2.07;99.27
10127;BME280;13080;42.608;23.362;2022-11-28T09:38:46;151674.53;;;2.25;98.92
10127;BME280;13080;42.608;23.362;2022-11-28T09:41:38;151702.91;;;2.37;97.26
10127;BME280;13080;42.608;23.362;2022-11-28T09:44:12;151719.69;;;2.43;98.70
10127;BME280;13080;42.608;23.362;2022-11-28T09:46:41;151748.09;;;2.55;99.17
10127;BME280;13080;42.608;23.362;2022-11-28T09:49:20;151723.59;;;2.45;98.63
10127;BME280;13080;42.608;23.362;2022-11-28T09:51:52;151727.41;;;2.46;98.84
10127;BME280;13080;42.608;23.362;2022-11-28T09:54:29;151740.34;;;2.52;99.06
10127;BME280;13080;42.608;23.362;2022-11-28T09:56:59;151750.69;;;2.56;98.69
10127;BME280;13080;42.608;23.362;2022-11-28T09:59:29;151731.31;;;2.48;97.57
10127;BME280;13080;42.608;23.362;2022-11-28T10:02:03;151710.66;;;2.40;97.69
10127;BME280;13080;42.608;23.362;2022-11-28T10:04:39;151679.69;;;2.27;98.50
10127;BME280;13080;42.608;23.362;2022-11-28T10:07:14;151651.31;;;2.16;99.62
10127;BME280;13080;42.608;23.362;2022-11-28T10:09:52;151621.66;;;2.04;99.15
10127;BME280;13080;42.608;23.362;2022-11-28T10:12:27;151597.13;;;1.95;100.00
10127;BME280;13080;42.608;23.362;2022-11-28T10:15:09;151580.34;;;1.88;100.00
10127;BME280;13080;42.608;23.362;2022-11-28T10:17:46;151570.06;;;1.84;100.00
10127;BME280;13080;42.608;23.362;2022-11-28T10:20:18;151566.19;;;1.82;100.00
10127;BME280;13080;42.608;23.362;2022-11-28T10:22:49;151599.72;;;1.96;100.00
10127;BME280;13080;42.608;23.362;2022-11-28T10:25:22;151639.72;;;2.12;100.00
10127;BME280;13080;42.608;23.362;2022-11-28T10:27:50;151673.25;;;2.25;100.00
10127;BME280;13080;42.608;23.362;2022-11-28T10:30:21;151705.53;;;2.38;100.00
10127;BME280;13080;42.608;23.362;2022-11-28T10:33:02;151742.91;;;2.53;99.24
10127;BME280;13080;42.608;23.362;2022-11-28T10:35:37;151722.31;;;2.44;97.22
10127;BME280;13080;42.608;23.362;2022-11-28T10:38:09;151713.25;;;2.41;96.47
10127;BME280;13080;42.608;23.362;2022-11-28T10:40:42;151702.91;;;2.37;97.74
10127;BME280;13080;42.608;23.362;2022-11-28T10:43:19;151677.13;;;2.26;96.26
10127;BME280;13080;42.608;23.362;2022-11-28T10:45:54;151662.94;;;2.21;95.55
10127;BME280;13080;42.608;23.362;2022-11-28T10:48:33;151680.97;;;2.28;97.23
10127;BME280;13080;42.608;23.362;2022-11-28T10:51:14;151701.63;;;2.36;97.09
10127;BME280;13080;42.608;23.362;2022-11-28T10:53:48;151710.66;;;2.40;94.38
10127;BME280;13080;42.608;23.362;2022-11-28T10:56:25;151718.41;;;2.43;95.57
10127;BME280;13080;42.608;23.362;2022-11-28T10:58:59;151731.31;;;2.48;97.38
10127;BME280;13080;42.608;23.362;2022-11-28T11:01:30;151777.75;;;2.66;97.85
10127;BME280;13080;42.608;23.362;2022-11-28T11:03:59;151816.47;;;2.82;97.41
10127;BME280;13080;42.608;23.362;2022-11-28T11:06:26;151862.94;;;3.00;94.99
10127;BME280;13080;42.608;23.362;2022-11-28T11:08:53;151873.28;;;3.04;94.92
10127;BME280;13080;42.608;23.362;2022-11-28T11:11:25;151914.63;;;3.21;95.27
10127;BME280;13080;42.608;23.362;2022-11-28T11:13:59;151923.66;;;3.24;95.35
10127;BME280;13080;42.608;23.362;2022-11-28T11:16:45;151931.41;;;3.27;95.94
10127;BME280;13080;42.608;23.362;2022-11-28T11:19:22;151943.03;;;3.32;95.00
10127;BME280;13080;42.608;23.362;2022-11-28T11:21:58;151953.34;;;3.36;95.35
10127;BME280;13080;42.608;23.362;2022-11-28T11:24:25;151994.69;;;3.52;96.42
10127;BME280;13080;42.608;23.362;2022-11-28T11:26:53;151981.75;;;3.47;94.78
10127;BME280;13080;42.608;23.362;2022-11-28T11:29:29;151989.53;;;3.50;95.61
10127;BME280;13080;42.608;23.362;2022-11-28T11:32:00;152001.16;;;3.55;94.57
10127;BME280;13080;42.608;23.362;2022-11-28T11:34:34;151988.25;;;3.50;95.74
10127;BME280;13080;42.608;23.362;2022-11-28T11:37:18;151974.00;;;3.44;95.04
10127;BME280;13080;42.608;23.362;2022-11-28T11:39:47;151961.09;;;3.39;94.47
10127;BME280;13080;42.608;23.362;2022-11-28T11:42:20;151953.34;;;3.36;96.54
10127;BME280;13080;42.608;23.362;2022-11-28T11:44:47;151958.50;;;3.38;96.78
10127;BME280;13080;42.608;23.362;2022-11-28T11:47:15;151967.56;;;3.42;97.90
10127;BME280;13080;42.608;23.362;2022-11-28T11:49:43;151971.44;;;3.43;98.12
10127;BME280;13080;42.608;23.362;2022-11-28T11:52:17;151981.75;;;3.47;97.83
10127;BME280;13080;42.608;23.362;2022-11-28T11:54:58;151989.53;;;3.50;96.18
10127;BME280;13080;42.608;23.362;2022-11-28T11:57:31;151983.06;;;3.48;95.21
10127;BME280;13080;42.608;23.362;2022-11-28T12:00:03;151989.53;;;3.50;96.32
10127;BME280;13080;42.608;23.362;2022-11-28T12:02:34;151990.81;;;3.51;95.99
10127;BME280;13080;42.608;23.362;2022-11-28T12:05:09;152015.31;;;3.61;94.51
10127;BME280;13080;42.608;23.362;2022-11-28T12:07:39;152003.69;;;3.56;96.03
10127;BME280;13080;42.608;23.362;2022-11-28T12:10:15;151993.38;;;3.52;96.63
10127;BME280;13080;42.608;23.362;2022-11-28T12:12:44;151999.88;;;3.54;96.81
10127;BME280;13080;42.608;23.362;2022-11-28T12:15:15;152005.03;;;3.57;95.59
10127;BME280;13080;42.608;23.362;2022-11-28T12:17:51;152015.31;;;3.61;96.14
10127;BME280;13080;42.608;23.362;2022-11-28T12:20:32;152023.09;;;3.64;95.20
10127;BME280;13080;42.608;23.362;2022-11-28T12:23:09;152046.34;;;3.73;94.26
10127;BME280;13080;42.608;23.362;2022-11-28T12:25:43;152016.66;;;3.61;92.43
10127;BME280;13080;42.608;23.362;2022-11-28T12:28:20;152011.47;;;3.59;93.29
10127;BME280;13080;42.608;23.362;2022-11-28T12:30:58;152012.75;;;3.60;94.30
10127;BME280;13080;42.608;23.362;2022-11-28T12:33:39;151988.25;;;3.50;93.82
10127;BME280;13080;42.608;23.362;2022-11-28T12:36:15;151966.28;;;3.41;94.91
10127;BME280;13080;42.608;23.362;2022-11-28T12:38:58;151923.66;;;3.24;93.49
10127;BME280;13080;42.608;23.362;2022-11-28T12:44:37;151896.53;;;3.13;93.51
10127;BME280;13080;42.608;23.362;2022-11-28T12:47:15;151875.91;;;3.05;94.97
10127;BME280;13080;42.608;23.362;2022-11-28T12:49:52;151855.22;;;2.97;96.90
10127;BME280;13080;42.608;23.362;2022-11-28T12:52:32;151865.56;;;3.01;97.43
10127;BME280;13080;42.608;23.362;2022-11-28T12:55:17;151839.72;;;2.91;98.71
10127;BME280;13080;42.608;23.362;2022-11-28T12:57:48;151843.59;;;2.92;98.74
10127;BME280;13080;42.608;23.362;2022-11-28T13:00:21;151813.94;;;2.81;98.75
10127;BME280;13080;42.608;23.362;2022-11-28T13:03:00;151816.47;;;2.82;99.48
10127;BME280;13080;42.608;23.362;2022-11-28T13:05:38;151806.16;;;2.78;100.00
10127;BME280;13080;42.608;23.362;2022-11-28T13:08:32;151791.97;;;2.72;100.00